createdAt,value
2022-08-03T00:01:53.276Z,96.50
2022-08-03T00:04:21.020Z,96.30
2022-08-03T00:07:01.876Z,96.00
2022-08-03T00:09:35.965Z,96.00
2022-08-03T00:12:03.937Z,95.70
2022-08-03T00:14:32.106Z,96.00
2022-08-03T00:16:59.847Z,96.00
2022-08-03T00:19:27.946Z,95.90
2022-08-03T00:21:55.742Z,95.90
2022-08-03T00:24:24.821Z,95.60
2022-08-03T00:26:52.618Z,96.20
2022-08-03T00:29:20.393Z,96.20
2022-08-03T00:31:52.913Z,96.40
2022-08-03T00:34:29.839Z,96.30
2022-08-03T00:37:04.514Z,96.30
2022-08-03T00:39:33.694Z,96.40
2022-08-03T00:42:03.654Z,96.60
2022-08-03T00:44:31.663Z,96.60
2022-08-03T00:46:59.413Z,96.50
2022-08-03T00:49:28.899Z,96.50
2022-08-03T00:51:57.162Z,96.90
2022-08-03T00:54:26.234Z,96.90
2022-08-03T00:56:59.722Z,97.10
2022-08-03T00:59:28.805Z,97.00
2022-08-03T01:01:56.695Z,96.80
2022-08-03T01:04:24.533Z,97.00
2022-08-03T01:07:03.219Z,97.00
2022-08-03T01:09:37.610Z,97.10
2022-08-03T01:12:15.447Z,97.30
2022-08-03T01:14:50.236Z,97.50
2022-08-03T01:17:25.112Z,97.40
2022-08-03T01:19:59.612Z,97.20
2022-08-03T01:22:49.928Z,97.00
2022-08-03T01:25:32.371Z,97.00
2022-08-03T01:28:20.918Z,97.00
2022-08-03T01:30:54.362Z,97.00
2022-08-03T01:33:26.990Z,97.00
2022-08-03T01:35:59.803Z,96.90
2022-08-03T01:38:30.331Z,97.00
2022-08-03T01:40:58.926Z,96.90
2022-08-03T01:44:27.547Z,96.90
2022-08-03T01:46:20.907Z,97.00
2022-08-03T01:48:49.869Z,97.20
2022-08-03T01:51:21.113Z,97.10
2022-08-03T01:53:51.054Z,97.20
2022-08-03T01:56:21.019Z,97.20
2022-08-03T01:58:50.712Z,97.30
2022-08-03T02:01:22.337Z,97.40
2022-08-03T02:03:59.709Z,97.60
2022-08-03T02:07:00.362Z,97.80
2022-08-03T02:09:23.139Z,97.80
2022-08-03T02:11:52.940Z,97.50
2022-08-03T02:14:22.101Z,97.60
2022-08-03T02:16:52.110Z,97.80
2022-08-03T02:19:21.189Z,97.60
2022-08-03T02:21:56.335Z,97.70
2022-08-03T02:24:29.285Z,97.80
2022-08-03T02:26:57.923Z,98.00
2022-08-03T02:29:39.476Z,97.80
2022-08-03T02:32:13.395Z,97.90
2022-08-03T02:34:43.022Z,98.10
2022-08-03T02:37:13.030Z,98.30
2022-08-03T02:39:42.747Z,98.50
2022-08-03T02:42:12.990Z,98.20
2022-08-03T02:44:47.657Z,98.70
2022-08-03T02:47:21.008Z,98.50
2022-08-03T02:49:52.081Z,98.40
2022-08-03T02:52:23.254Z,98.60
2022-08-03T02:54:55.804Z,98.20
2022-08-03T02:57:25.722Z,98.30
2022-08-03T02:59:55.156Z,98.40
2022-08-03T03:02:26.037Z,98.60
2022-08-03T03:05:50.533Z,98.50
2022-08-03T03:07:51.853Z,98.60
2022-08-03T03:10:22.279Z,98.40
2022-08-03T03:12:52.019Z,98.50
2022-08-03T03:15:20.223Z,98.50
2022-08-03T03:17:50.572Z,98.30
2022-08-03T03:20:29.018Z,98.70
2022-08-03T03:23:00.099Z,98.70
2022-08-03T03:25:28.862Z,98.60
2022-08-03T03:27:57.060Z,98.50
2022-08-03T03:30:26.500Z,98.60
2022-08-03T03:32:56.113Z,98.70
2022-08-03T03:35:23.953Z,98.60
2022-08-03T03:37:52.850Z,98.90
2022-08-03T03:40:20.770Z,98.70
2022-08-03T03:42:48.896Z,98.80
2022-08-03T03:45:17.207Z,98.60
2022-08-03T03:47:45.102Z,98.30
2022-08-03T03:50:15.946Z,98.00
2022-08-03T03:52:43.906Z,97.90
2022-08-03T03:55:11.645Z,97.80
2022-08-03T03:57:39.373Z,98.00
2022-08-03T04:00:08.672Z,98.30
2022-08-03T04:02:36.607Z,98.00
2022-08-03T04:05:22.310Z,97.90
2022-08-03T04:08:17.241Z,98.00
2022-08-03T04:11:01.706Z,98.40
2022-08-03T04:13:34.375Z,98.70
2022-08-03T04:16:04.133Z,98.90
2022-08-03T04:18:35.551Z,99.00
2022-08-03T04:21:06.865Z,98.90
2022-08-03T04:23:38.695Z,98.40
2022-08-03T04:26:09.644Z,98.20
2022-08-03T04:28:40.420Z,98.50
2022-08-03T04:31:08.977Z,98.40
2022-08-03T04:33:39.368Z,98.80
2022-08-03T04:36:09.772Z,99.60
2022-08-03T04:38:45.081Z,99.40
2022-08-03T04:41:13.885Z,99.60
2022-08-03T04:43:42.283Z,99.90
2022-08-03T04:46:11.305Z,99.90
2022-08-03T04:48:44.359Z,99.90
2022-08-03T04:51:13.163Z,99.90
2022-08-03T04:53:44.026Z,99.90
2022-08-03T04:56:11.990Z,99.60
2022-08-03T04:58:40.144Z,99.60
2022-08-03T05:01:08.669Z,99.30
2022-08-03T05:03:36.824Z,99.60
2022-08-03T05:06:11.480Z,99.90
2022-08-03T05:08:46.211Z,99.90
2022-08-03T05:11:16.063Z,99.90
2022-08-03T05:13:43.966Z,99.90
2022-08-03T05:16:12.250Z,99.90
2022-08-03T05:18:39.990Z,99.90
2022-08-03T05:21:07.736Z,99.90
2022-08-03T05:23:35.601Z,99.90
2022-08-03T05:26:03.475Z,99.90
2022-08-03T05:28:32.572Z,99.90
2022-08-03T05:31:00.346Z,99.90
2022-08-03T05:33:28.085Z,99.90
2022-08-03T05:36:03.095Z,99.80
2022-08-03T05:38:34.569Z,99.60
2022-08-03T05:41:21.785Z,99.60
2022-08-03T05:43:53.732Z,99.70
2022-08-03T05:46:22.405Z,99.60
2022-08-03T05:48:50.637Z,99.30
2022-08-03T05:51:18.702Z,99.40
2022-08-03T05:53:46.747Z,99.40
2022-08-03T05:56:16.193Z,99.30
2022-08-03T05:58:45.739Z,99.10
2022-08-03T06:01:15.299Z,99.00
2022-08-03T06:03:43.120Z,98.90
2022-08-03T06:06:11.699Z,98.80
2022-08-03T06:08:39.722Z,98.90
2022-08-03T06:11:07.741Z,98.60
2022-08-03T06:13:35.783Z,98.80
2022-08-03T06:16:03.742Z,98.70
2022-08-03T06:18:32.886Z,98.60
2022-08-03T06:21:14.098Z,98.30
2022-08-03T06:23:52.501Z,98.20
2022-08-03T06:26:22.750Z,98.10
2022-08-03T06:28:52.616Z,97.90
2022-08-03T06:31:23.867Z,98.10
2022-08-03T06:34:32.657Z,97.90
2022-08-03T06:36:41.179Z,97.80
2022-08-03T06:39:09.285Z,97.70
2022-08-03T06:41:38.229Z,97.60
2022-08-03T06:44:12.543Z,97.50
2022-08-03T06:46:40.627Z,97.50
2022-08-03T06:49:09.729Z,97.40
2022-08-03T06:52:03.329Z,97.40
2022-08-03T06:54:26.500Z,97.30
2022-08-03T06:56:55.319Z,97.10
2022-08-03T07:00:10.172Z,97.30
2022-08-03T07:02:11.574Z,97.00
2022-08-03T07:04:40.802Z,96.90
2022-08-03T07:07:08.635Z,97.00
2022-08-03T07:09:36.809Z,97.10
2022-08-03T07:12:06.541Z,97.00
2022-08-03T07:14:34.464Z,96.70
2022-08-03T07:17:11.394Z,96.30
2022-08-03T07:19:41.192Z,96.40
2022-08-03T07:22:09.325Z,96.30
2022-08-03T07:24:37.029Z,96.10
2022-08-03T07:27:05.247Z,96.40
2022-08-03T07:29:34.674Z,96.10
2022-08-03T07:32:02.687Z,96.20
2022-08-03T07:34:30.418Z,96.40
2022-08-03T07:36:59.926Z,96.20
2022-08-03T07:39:27.683Z,96.60
2022-08-03T07:41:55.807Z,96.40
2022-08-03T07:44:23.521Z,95.70
2022-08-03T07:46:51.942Z,96.30
2022-08-03T07:49:19.862Z,96.40
2022-08-03T07:52:07.938Z,96.30
2022-08-03T07:54:37.105Z,96.00
2022-08-03T07:57:05.393Z,95.90
2022-08-03T07:59:56.582Z,96.00
2022-08-03T08:02:22.883Z,95.70
2022-08-03T08:04:50.757Z,95.80
2022-08-03T08:07:18.679Z,95.70
2022-08-03T08:09:49.952Z,95.40
2022-08-03T08:12:18.019Z,95.30
2022-08-03T08:14:46.816Z,95.20
2022-08-03T08:17:14.645Z,95.10
2022-08-03T08:19:43.824Z,94.60
2022-08-03T08:22:20.370Z,94.60
2022-08-03T08:24:59.752Z,94.60
2022-08-03T08:28:22.452Z,94.90
2022-08-03T08:30:19.571Z,94.30
2022-08-03T08:32:47.809Z,95.00
2022-08-03T08:35:16.272Z,93.70
2022-08-03T08:37:51.246Z,94.30
2022-08-03T08:40:22.741Z,94.60
2022-08-03T08:42:59.197Z,94.60
2022-08-03T08:45:27.683Z,94.20
2022-08-03T08:48:01.062Z,94.40
2022-08-03T08:50:31.425Z,93.60
2022-08-03T08:53:03.205Z,93.60
2022-08-03T08:55:59.614Z,93.20
2022-08-03T08:58:23.672Z,93.40
2022-08-03T09:00:52.205Z,93.70
2022-08-03T09:03:29.569Z,93.50
2022-08-03T09:05:59.792Z,93.30
2022-08-03T09:08:27.579Z,93.30
2022-08-03T09:10:56.655Z,93.00
2022-08-03T09:13:24.379Z,93.30
2022-08-03T09:16:11.855Z,93.50
2022-08-03T09:18:40.697Z,93.40
2022-08-03T09:21:34.013Z,93.30
2022-08-03T09:24:05.424Z,93.00
2022-08-03T09:26:35.981Z,93.10
2022-08-03T09:29:09.642Z,92.80
2022-08-03T09:31:44.052Z,92.10
2022-08-03T09:34:13.744Z,92.80
2022-08-03T09:36:43.126Z,92.80
2022-08-03T09:39:12.460Z,92.40
2022-08-03T09:41:44.607Z,92.40
2022-08-03T09:44:24.288Z,92.50
2022-08-03T09:46:55.968Z,92.10
2022-08-03T09:49:24.299Z,92.00
2022-08-03T09:52:32.683Z,92.40
2022-08-03T09:54:40.691Z,92.30
2022-08-03T09:57:10.768Z,92.20
2022-08-03T09:59:41.084Z,92.10
2022-08-03T10:02:22.899Z,92.20
2022-08-03T10:04:52.463Z,91.90
2022-08-03T10:07:21.763Z,91.80
2022-08-03T10:09:58.444Z,91.60
2022-08-03T10:12:48.774Z,91.70
2022-08-03T10:16:21.762Z,91.50
2022-08-03T10:18:05.248Z,91.90
2022-08-03T10:20:33.882Z,91.90
2022-08-03T10:23:02.548Z,92.00
2022-08-03T10:25:33.015Z,91.50
2022-08-03T10:28:04.324Z,91.50
2022-08-03T10:30:33.158Z,90.90
2022-08-03T10:33:06.018Z,91.20
2022-08-03T10:35:55.975Z,90.30
2022-08-03T10:38:30.921Z,89.40
2022-08-03T10:41:00.187Z,90.60
2022-08-03T10:43:37.198Z,90.70
2022-08-03T10:46:08.883Z,90.60
2022-08-03T10:48:37.863Z,90.50
2022-08-03T10:51:07.589Z,90.70
2022-08-03T10:53:36.878Z,90.00
2022-08-03T10:56:35.646Z,90.30
2022-08-03T10:59:12.606Z,90.90
2022-08-03T11:02:00.321Z,90.00
2022-08-03T11:04:30.611Z,90.20
2022-08-03T11:07:22.708Z,90.20
2022-08-03T11:09:52.345Z,90.00
2022-08-03T11:12:30.077Z,89.20
2022-08-03T11:15:03.154Z,90.10
2022-08-03T11:17:31.090Z,90.10
2022-08-03T11:19:58.937Z,90.30
2022-08-03T11:22:29.025Z,89.60
2022-08-03T11:25:03.126Z,89.20
2022-08-03T11:27:32.893Z,85.30
2022-08-03T11:30:06.496Z,88.50
2022-08-03T11:32:53.334Z,88.60
2022-08-03T11:35:23.520Z,86.70
2022-08-03T11:38:11.828Z,88.00
2022-08-03T11:40:42.005Z,88.60
2022-08-03T11:43:11.177Z,88.30
2022-08-03T11:45:40.234Z,87.20
2022-08-03T11:50:45.358Z,86.70
2022-08-03T11:53:19.079Z,87.60
2022-08-03T11:55:49.685Z,87.50
2022-08-03T11:59:01.901Z,87.20
2022-08-03T12:01:12.496Z,88.00
2022-08-03T12:03:40.344Z,85.60
2022-08-03T12:06:11.037Z,83.90
2022-08-03T12:08:38.823Z,86.90
2022-08-03T12:11:09.297Z,84.70
2022-08-03T12:14:43.875Z,82.10
2022-08-03T12:16:29.553Z,85.10
2022-08-03T12:18:58.567Z,83.50
2022-08-03T12:21:26.519Z,84.30
2022-08-03T12:23:58.984Z,82.10
2022-08-03T12:26:27.393Z,82.70
2022-08-03T12:28:56.292Z,82.60
2022-08-03T12:31:24.831Z,82.50
2022-08-03T12:34:03.660Z,84.10
2022-08-03T12:36:33.548Z,83.50
2022-08-03T12:39:04.023Z,81.60
2022-08-03T12:41:35.204Z,83.10
2022-08-03T12:44:04.370Z,82.70
2022-08-03T12:46:34.581Z,83.50
2022-08-03T12:49:07.333Z,83.40
2022-08-03T12:51:37.610Z,82.60
2022-08-03T12:54:06.215Z,81.10
2022-08-03T12:56:34.042Z,82.10
2022-08-03T12:59:01.969Z,82.20
2022-08-03T13:01:37.997Z,81.20
2022-08-03T13:04:33.137Z,83.00
2022-08-03T13:07:03.421Z,80.30
2022-08-03T13:09:33.137Z,81.30
2022-08-03T13:12:09.304Z,80.60
2022-08-03T13:14:37.265Z,83.10
2022-08-03T13:17:06.288Z,81.30
2022-08-03T13:19:36.326Z,81.80
2022-08-03T13:22:12.933Z,81.50
2022-08-03T13:24:41.251Z,81.30
2022-08-03T13:28:04.864Z,80.00
2022-08-03T13:29:57.459Z,81.50
2022-08-03T13:32:25.518Z,80.70
2022-08-03T13:34:54.571Z,78.90
2022-08-03T13:37:22.662Z,80.10
2022-08-03T13:39:59.558Z,80.20
2022-08-03T13:42:28.852Z,79.60
2022-08-03T13:44:56.648Z,78.30
2022-08-03T13:47:24.400Z,77.60
2022-08-03T13:49:59.886Z,80.10
2022-08-03T13:52:30.220Z,80.60
2022-08-03T13:54:58.514Z,77.60
2022-08-03T13:58:04.544Z,78.50
2022-08-03T14:00:16.126Z,78.60
2022-08-03T14:03:02.916Z,79.10
2022-08-03T14:05:33.679Z,79.10
2022-08-03T14:08:05.723Z,78.80
2022-08-03T14:10:35.373Z,77.70
2022-08-03T14:13:03.328Z,76.20
2022-08-03T14:15:31.210Z,75.90
2022-08-03T14:17:59.157Z,75.90
2022-08-03T14:20:37.127Z,75.50
2022-08-03T14:23:16.492Z,78.70
2022-08-03T14:25:51.769Z,76.60
2022-08-03T14:28:22.590Z,78.60
2022-08-03T14:30:50.914Z,77.70
2022-08-03T14:33:19.118Z,77.80
2022-08-03T14:35:48.479Z,77.30
2022-08-03T14:38:18.504Z,75.90
2022-08-03T14:40:46.756Z,78.10
2022-08-03T14:43:14.921Z,77.80
2022-08-03T14:45:42.942Z,79.10
2022-08-03T14:50:30.725Z,76.10
2022-08-03T14:51:00.287Z,76.40
2022-08-03T14:53:30.134Z,78.70
2022-08-03T14:55:58.294Z,76.20
2022-08-03T14:58:26.768Z,77.40
2022-08-03T15:00:55.894Z,78.30
2022-08-03T15:03:25.148Z,78.80
2022-08-03T15:05:54.040Z,78.10
2022-08-03T15:08:22.088Z,76.50
2022-08-03T15:10:51.677Z,75.90
2022-08-03T15:13:20.354Z,77.40
2022-08-03T15:15:49.544Z,76.00
2022-08-03T15:18:17.476Z,76.50
2022-08-03T15:20:46.682Z,76.30
2022-08-03T15:23:16.326Z,76.40
2022-08-03T15:26:29.291Z,75.70
2022-08-03T15:28:33.914Z,73.40
2022-08-03T15:31:01.839Z,76.00
2022-08-03T15:33:29.869Z,74.20
2022-08-03T15:35:58.042Z,76.10
2022-08-03T15:38:26.487Z,75.30
2022-08-03T15:40:54.422Z,76.10
2022-08-03T15:43:22.653Z,74.60
2022-08-03T15:46:26.482Z,75.00
2022-08-03T15:48:39.870Z,73.30
2022-08-03T15:51:08.442Z,74.00
2022-08-03T15:53:36.324Z,73.60
2022-08-03T15:56:09.819Z,72.70
2022-08-03T15:59:04.665Z,73.80
2022-08-03T16:01:28.711Z,73.00
2022-08-03T16:03:56.512Z,73.90
2022-08-03T16:06:35.549Z,72.40
2022-08-03T16:09:05.436Z,73.50
2022-08-03T16:11:50.919Z,73.10
2022-08-03T16:14:34.359Z,73.40
2022-08-03T16:17:07.729Z,74.40
2022-08-03T16:19:35.693Z,73.60
2022-08-03T16:22:03.567Z,74.00
2022-08-03T16:24:31.944Z,74.00
2022-08-03T16:27:00.440Z,74.30
2022-08-03T16:29:28.652Z,72.90
2022-08-03T16:31:56.421Z,73.00
2022-08-03T16:34:25.476Z,74.00
2022-08-03T16:36:54.990Z,72.50
2022-08-03T16:39:22.964Z,73.10
2022-08-03T16:42:00.546Z,73.80
2022-08-03T16:44:31.110Z,73.40
2022-08-03T16:46:59.687Z,74.40
2022-08-03T16:49:54.468Z,73.70
2022-08-03T16:52:18.092Z,74.20
2022-08-03T16:54:52.607Z,73.50
2022-08-03T16:57:59.685Z,73.90
2022-08-03T17:00:11.991Z,73.60
2022-08-03T17:02:48.268Z,74.20
2022-08-03T17:05:18.844Z,73.50
2022-08-03T17:07:50.690Z,73.70
2022-08-03T17:10:27.069Z,74.50
2022-08-03T17:12:56.006Z,73.60
2022-08-03T17:15:38.150Z,73.90
2022-08-03T17:18:17.824Z,74.20
2022-08-03T17:20:52.260Z,74.00
2022-08-03T17:23:35.509Z,74.40
2022-08-03T17:26:09.774Z,74.70
2022-08-03T17:28:52.174Z,74.30
2022-08-03T17:31:31.366Z,74.40
2022-08-03T17:34:01.787Z,75.10
2022-08-03T17:37:02.767Z,74.30
2022-08-03T17:39:31.213Z,74.90
2022-08-03T17:42:30.094Z,75.00
2022-08-03T17:44:57.937Z,74.90
2022-08-03T17:47:29.269Z,75.30
2022-08-03T17:50:24.210Z,75.70
2022-08-03T17:53:07.106Z,75.80
2022-08-03T17:55:56.101Z,76.30
2022-08-03T17:58:43.846Z,76.80
2022-08-03T18:02:02.673Z,76.60
2022-08-03T18:04:30.351Z,78.30
2022-08-03T18:07:11.583Z,80.10
2022-08-03T18:10:06.706Z,80.20
2022-08-03T18:12:40.508Z,81.20
2022-08-03T18:15:13.344Z,81.00
2022-08-03T18:17:55.159Z,82.70
2022-08-03T18:20:42.711Z,83.00
2022-08-03T18:23:25.168Z,83.90
2022-08-03T18:26:06.771Z,84.10
2022-08-03T18:28:38.347Z,84.50
2022-08-03T18:31:07.456Z,84.80
2022-08-03T18:34:19.273Z,85.30
2022-08-03T18:36:30.139Z,85.70
2022-08-03T18:38:59.841Z,85.70
2022-08-03T18:41:32.147Z,85.80
2022-08-03T18:44:07.796Z,85.40
2022-08-03T18:46:48.862Z,85.20
2022-08-03T18:49:29.203Z,84.50
2022-08-03T18:52:26.973Z,85.20
2022-08-03T18:55:02.453Z,85.30
2022-08-03T18:57:42.614Z,85.70
2022-08-03T19:00:15.277Z,85.40
2022-08-03T19:02:50.026Z,86.00
2022-08-03T19:05:20.363Z,86.40
2022-08-03T19:07:58.146Z,87.20
2022-08-03T19:10:32.127Z,87.70
2022-08-03T19:13:05.235Z,88.30
2022-08-03T19:15:51.034Z,88.40
2022-08-03T19:18:21.928Z,88.60
2022-08-03T19:20:54.703Z,88.50
2022-08-03T19:23:25.324Z,88.60
2022-08-03T19:25:53.786Z,88.90
2022-08-03T19:28:30.108Z,89.20
2022-08-03T19:31:02.506Z,89.90
2022-08-03T19:33:57.560Z,90.00
2022-08-03T19:36:26.359Z,90.10
2022-08-03T19:38:55.743Z,90.40
2022-08-03T19:41:27.320Z,90.60
2022-08-03T19:44:04.444Z,90.30
2022-08-03T19:46:44.900Z,90.30
2022-08-03T19:49:16.375Z,90.50
2022-08-03T19:51:59.048Z,90.80
2022-08-03T19:54:39.680Z,90.90
2022-08-03T19:57:24.492Z,91.00
2022-08-03T19:59:54.452Z,91.60
2022-08-03T20:02:26.265Z,91.40
2022-08-03T20:04:56.418Z,91.50
2022-08-03T20:07:24.720Z,91.70
2022-08-03T20:09:56.094Z,91.80
2022-08-03T20:12:27.718Z,91.80
2022-08-03T20:14:59.084Z,92.00
2022-08-03T20:17:55.525Z,92.00
2022-08-03T20:20:21.080Z,92.20
2022-08-03T20:22:57.525Z,92.30
2022-08-03T20:25:37.971Z,92.30
2022-08-03T20:28:13.607Z,92.30
2022-08-03T20:30:47.455Z,92.30
2022-08-03T20:33:19.035Z,92.60
2022-08-03T20:35:48.954Z,92.50
2022-08-03T20:38:18.640Z,92.40
2022-08-03T20:40:47.200Z,92.10
2022-08-03T20:43:15.192Z,92.20
2022-08-03T20:46:01.173Z,91.50
2022-08-03T20:48:35.631Z,91.60
2022-08-03T20:51:05.787Z,92.10
2022-08-03T20:54:00.572Z,92.30
2022-08-03T20:56:33.663Z,92.50
2022-08-03T20:59:02.829Z,93.00
2022-08-03T21:01:36.218Z,92.50
2022-08-03T21:04:06.730Z,91.70
2022-08-03T21:06:39.424Z,91.60
2022-08-03T21:09:09.776Z,91.90
2022-08-03T21:11:44.079Z,92.20
2022-08-03T21:14:16.832Z,92.60
2022-08-03T21:16:46.761Z,92.70
2022-08-03T21:19:16.715Z,93.10
2022-08-03T21:21:45.579Z,93.40
2022-08-03T21:24:14.668Z,93.40
2022-08-03T21:26:43.571Z,93.70
2022-08-03T21:29:14.129Z,93.90
2022-08-03T21:31:42.127Z,93.90
2022-08-03T21:34:11.277Z,94.00
2022-08-03T21:36:39.115Z,94.20
2022-08-03T21:39:09.046Z,94.60
2022-08-03T21:41:38.781Z,94.70
2022-08-03T21:44:07.207Z,94.90
2022-08-03T21:46:37.385Z,95.10
2022-08-03T21:49:51.900Z,95.20
2022-08-03T21:51:59.410Z,94.90
2022-08-03T21:54:34.359Z,95.20
2022-08-03T21:57:05.367Z,94.60
2022-08-03T21:59:37.946Z,94.30
2022-08-03T22:02:11.397Z,94.70
2022-08-03T22:04:56.233Z,94.60
2022-08-03T22:07:28.225Z,94.90
2022-08-03T22:09:56.963Z,94.70
2022-08-03T22:12:29.706Z,94.70
2022-08-03T22:15:00.410Z,94.70
2022-08-03T22:17:53.672Z,94.10
2022-08-03T22:20:19.886Z,94.40
2022-08-03T22:22:55.789Z,94.70
2022-08-03T22:25:28.825Z,95.00
2022-08-03T22:27:57.395Z,95.30
2022-08-03T22:30:25.302Z,95.10
2022-08-03T22:32:56.110Z,95.80
2022-08-03T22:35:26.244Z,96.10
2022-08-03T22:37:58.190Z,96.10
2022-08-03T22:40:27.201Z,96.30
2022-08-03T22:42:55.756Z,96.50
2022-08-03T22:46:06.845Z,96.60
2022-08-03T22:48:12.351Z,96.60
2022-08-03T22:50:40.814Z,96.80
2022-08-03T22:53:10.420Z,96.70
2022-08-03T22:55:38.458Z,96.70
2022-08-03T22:58:06.224Z,96.70
2022-08-03T23:00:34.136Z,96.70
2022-08-03T23:03:07.191Z,96.80
2022-08-03T23:06:01.377Z,96.80
2022-08-03T23:08:27.663Z,97.20
2022-08-03T23:10:57.884Z,97.00
2022-08-03T23:13:28.141Z,97.10
2022-08-03T23:15:58.453Z,97.30
2022-08-03T23:18:32.067Z,97.70
2022-08-03T23:21:11.028Z,98.10
2022-08-03T23:23:44.405Z,98.10
2022-08-03T23:26:13.697Z,97.80
2022-08-03T23:28:46.096Z,97.90
2022-08-03T23:31:15.710Z,98.30
2022-08-03T23:33:45.965Z,98.60
2022-08-03T23:36:30.263Z,98.60
2022-08-03T23:39:03.763Z,98.50
2022-08-03T23:41:33.875Z,98.80
2022-08-03T23:44:04.123Z,98.80
2022-08-03T23:46:33.394Z,98.90
2022-08-03T23:49:01.523Z,99.00
2022-08-03T23:51:39.957Z,99.20
2022-08-03T23:54:18.929Z,99.20
2022-08-03T23:56:55.021Z,99.30
2022-08-03T23:59:29.790Z,99.40
